Time;durP1;ratioP1;P1;durP2;ratioP2;P2;SDS_P1;SDS_P2;PMS_P1;PMS_P2;Temp;Humidity;BMP_temperature;BMP_pressure;BME280_temperature;BME280_humidity;BME280_pressure;Samples;Min_cycle;Max_cycle;Signal;HPM_P1;HPM_P2
2022/03/09 00:00:20;;;;;;;5.67;2.60;;;3.10;99.90;;;;;;5051443;28;20181;-73
2022/03/09 00:02:45;;;;;;;3.57;2.40;;;3.10;99.90;;;;;;5050262;28;20195;-74
2022/03/09 00:05:11;;;;;;;3.50;2.87;;;3.00;99.90;;;;;;5051338;28;20195;-71
2022/03/09 00:07:37;;;;;;;4.53;2.80;;;3.00;99.90;;;;;;5049532;28;20192;-73
2022/03/09 00:10:04;;;;;;;3.47;2.53;;;3.00;99.90;;;;;;5049721;28;20201;-72
2022/03/09 00:12:29;;;;;;;3.60;2.70;;;3.00;99.90;;;;;;5050748;28;20265;-72
2022/03/09 00:14:55;;;;;;;3.97;2.57;;;2.90;99.90;;;;;;5051452;28;20283;-73
2022/03/09 00:17:21;;;;;;;2.97;2.20;;;2.90;99.90;;;;;;5051106;28;20199;-71
2022/03/09 00:19:46;;;;;;;5.97;2.80;;;2.90;99.90;;;;;;5052188;28;20296;-72
2022/03/09 00:22:12;;;;;;;3.50;2.63;;;2.90;99.90;;;;;;5049600;28;20195;-73
2022/03/09 00:24:38;;;;;;;3.47;2.57;;;2.80;99.90;;;;;;5049822;28;20201;-72
2022/03/09 00:27:04;;;;;;;4.90;2.97;;;2.80;99.90;;;;;;5049016;28;20187;-73
2022/03/09 00:29:29;;;;;;;3.47;2.67;;;2.80;99.90;;;;;;5050913;28;20267;-72
2022/03/09 00:31:55;;;;;;;4.10;2.50;;;2.80;99.90;;;;;;5049600;28;20183;-72
2022/03/09 00:34:21;;;;;;;3.70;2.80;;;2.80;99.90;;;;;;5050563;28;20185;-72
2022/03/09 00:36:49;;;;;;;10.07;3.20;;;2.70;99.90;;;;;;5049521;28;20179;-74
2022/03/09 00:39:15;;;;;;;5.60;3.33;;;2.70;99.90;;;;;;5050470;28;20595;-72
2022/03/09 00:41:41;;;;;;;5.77;2.97;;;2.70;99.90;;;;;;5051042;28;20188;-72
2022/03/09 00:44:06;;;;;;;4.47;3.00;;;2.70;99.90;;;;;;5050770;28;20204;-73
2022/03/09 00:46:32;;;;;;;5.03;3.20;;;2.70;99.90;;;;;;5051431;28;20264;-71
2022/03/09 00:48:58;;;;;;;5.83;3.27;;;2.60;99.90;;;;;;5049952;28;20207;-73
2022/03/09 00:51:24;;;;;;;5.00;3.00;;;2.60;99.90;;;;;;5051241;28;20177;-72
2022/03/09 00:53:50;;;;;;;4.17;2.50;;;2.60;99.90;;;;;;5048952;28;20640;-73
2022/03/09 00:56:15;;;;;;;3.17;2.20;;;2.60;99.90;;;;;;5049768;28;20179;-74
2022/03/09 00:58:42;;;;;;;3.07;2.40;;;2.50;99.90;;;;;;5050351;28;20227;-73
2022/03/09 01:01:10;;;;;;;2.40;2.20;;;2.50;99.90;;;;;;5068362;28;20220;-72
2022/03/09 01:03:36;;;;;;;3.67;2.67;;;2.40;99.90;;;;;;5048325;28;20718;-74
2022/03/09 01:06:02;;;;;;;5.07;2.37;;;2.50;99.90;;;;;;5054354;28;20258;-72
2022/03/09 01:08:28;;;;;;;4.57;2.30;;;2.50;99.90;;;;;;5053753;28;20622;-75
2022/03/09 01:10:54;;;;;;;2.90;2.20;;;2.50;99.90;;;;;;5055673;28;20179;-73
2022/03/09 01:13:21;;;;;;;3.00;2.50;;;2.50;99.90;;;;;;5053030;28;20214;-72
2022/03/09 01:15:47;;;;;;;5.90;2.37;;;2.50;99.90;;;;;;5053183;28;20184;-71
2022/03/09 01:18:12;;;;;;;3.03;2.20;;;2.50;99.90;;;;;;5052179;28;20196;-72
2022/03/09 01:20:38;;;;;;;3.70;2.47;;;2.50;99.90;;;;;;5053510;28;20177;-72
2022/03/09 01:23:04;;;;;;;2.90;2.20;;;2.50;99.90;;;;;;5054079;28;20183;-73
2022/03/09 01:25:29;;;;;;;2.43;2.03;;;2.50;99.90;;;;;;5053778;28;20593;-73
2022/03/09 01:27:55;;;;;;;3.77;2.30;;;2.50;99.90;;;;;;5073078;28;20223;-71
2022/03/09 01:30:21;;;;;;;2.73;2.37;;;2.50;99.90;;;;;;5053784;28;20212;-72
2022/03/09 01:32:46;;;;;;;2.47;2.27;;;2.50;99.90;;;;;;5053332;28;20179;-72
2022/03/09 01:35:12;;;;;;;3.70;2.50;;;2.40;99.90;;;;;;5053306;28;20243;-73
2022/03/09 01:37:38;;;;;;;3.30;2.40;;;2.40;99.90;;;;;;5054281;28;20210;-73
2022/03/09 01:40:10;;;;;;;4.63;2.40;;;2.40;99.90;;;;;;5053203;28;20191;-72
2022/03/09 01:42:35;;;;;;;2.67;2.37;;;2.40;99.90;;;;;;5051331;28;20190;-73
2022/03/09 01:45:07;;;;;;;6.00;2.73;;;2.40;99.90;;;;;;5055496;28;20205;-72
2022/03/09 01:47:33;;;;;;;3.50;2.50;;;2.40;99.90;;;;;;5050665;28;20195;-72
2022/03/09 01:49:59;;;;;;;4.17;2.40;;;2.40;99.90;;;;;;5052685;28;20187;-74
2022/03/09 01:52:25;;;;;;;2.63;2.17;;;2.40;99.90;;;;;;5054610;28;20172;-72
2022/03/09 01:54:54;;;;;;;5.77;2.90;;;2.40;99.90;;;;;;5054466;28;20191;-74
2022/03/09 01:57:21;;;;;;;3.30;2.13;;;2.40;99.90;;;;;;5054545;28;20233;-73
2022/03/09 01:59:48;;;;;;;5.27;2.23;;;2.40;99.90;;;;;;5054050;28;20179;-73
2022/03/09 02:02:14;;;;;;;4.50;2.63;;;2.40;99.90;;;;;;5053563;28;20190;-74
2022/03/09 02:04:40;;;;;;;3.90;2.37;;;2.40;99.90;;;;;;5051939;28;20196;-72
2022/03/09 02:07:09;;;;;;;3.67;2.63;;;2.40;99.90;;;;;;5055503;28;20659;-73
2022/03/09 02:09:41;;;;;;;3.60;2.40;;;2.40;99.90;;;;;;5053477;28;20179;-75
2022/03/09 02:12:11;;;;;;;3.83;2.30;;;2.40;99.90;;;;;;5052036;28;20211;-73
2022/03/09 02:14:44;;;;;;;3.67;2.10;;;2.40;99.90;;;;;;5051880;28;20201;-74
2022/03/09 02:17:11;;;;;;;4.03;2.40;;;2.40;99.90;;;;;;5051406;28;20200;-73
2022/03/09 02:19:38;;;;;;;3.20;2.30;;;2.30;99.90;;;;;;5051023;28;20178;-71
2022/03/09 02:22:14;;;;;;;4.23;2.43;;;2.30;99.90;;;;;;5050770;28;20174;-75
2022/03/09 02:24:40;;;;;;;2.40;2.10;;;2.30;99.90;;;;;;5049483;28;20214;-75
2022/03/09 02:27:06;;;;;;;3.23;2.20;;;2.40;99.90;;;;;;5052121;28;20180;-74
2022/03/09 02:29:32;;;;;;;6.60;2.80;;;2.40;99.90;;;;;;5051910;28;20185;-72
2022/03/09 02:32:01;;;;;;;3.00;2.50;;;2.40;99.90;;;;;;5068001;28;20784;-73
2022/03/09 02:34:28;;;;;;;6.80;2.67;;;2.40;99.90;;;;;;5051589;28;20228;-73
2022/03/09 02:36:53;;;;;;;5.67;2.47;;;2.40;99.90;;;;;;5053076;28;20191;-76
2022/03/09 02:39:19;;;;;;;3.73;2.53;;;2.40;99.90;;;;;;5053115;28;20190;-75
2022/03/09 02:41:45;;;;;;;4.57;2.53;;;2.40;99.90;;;;;;5049558;28;20179;-73
2022/03/09 02:44:10;;;;;;;3.70;2.47;;;2.40;99.90;;;;;;5053786;28;20194;-72
2022/03/09 02:46:36;;;;;;;3.67;2.53;;;2.30;99.90;;;;;;5055049;28;20185;-73
2022/03/09 02:49:02;;;;;;;3.97;2.30;;;2.40;99.90;;;;;;5051932;28;20253;-76
2022/03/09 02:51:28;;;;;;;3.87;2.70;;;2.30;99.90;;;;;;5051367;28;20195;-72
2022/03/09 02:53:53;;;;;;;2.77;2.27;;;2.30;99.90;;;;;;5051856;28;20204;-74
2022/03/09 02:56:19;;;;;;;2.90;2.30;;;2.30;99.90;;;;;;5052286;28;20183;-70
2022/03/09 02:58:45;;;;;;;3.90;2.47;;;2.20;99.90;;;;;;5052554;28;20206;-71
2022/03/09 03:01:13;;;;;;;2.47;2.13;;;2.20;99.90;;;;;;5053506;28;20581;-71
2022/03/09 03:03:42;;;;;;;4.53;2.40;;;2.20;99.90;;;;;;5053459;28;20190;-70
2022/03/09 03:06:12;;;;;;;3.70;2.57;;;2.20;99.90;;;;;;5050381;28;20681;-71
2022/03/09 03:08:39;;;;;;;3.50;2.53;;;2.20;99.90;;;;;;5049643;28;20213;-71
2022/03/09 03:11:09;;;;;;;4.60;2.27;;;2.20;99.90;;;;;;5050273;28;20176;-71
2022/03/09 03:13:37;;;;;;;4.53;2.37;;;2.20;99.90;;;;;;5049647;28;20240;-71
2022/03/09 03:16:03;;;;;;;3.87;2.37;;;2.20;99.90;;;;;;5051669;28;20171;-72
2022/03/09 03:18:29;;;;;;;2.90;2.20;;;2.20;99.90;;;;;;5048256;28;20202;-71
2022/03/09 03:20:54;;;;;;;3.40;2.70;;;2.20;99.90;;;;;;5050713;28;20185;-71
2022/03/09 03:23:23;;;;;;;3.33;2.37;;;2.20;99.90;;;;;;5050215;28;20180;-72
2022/03/09 03:25:53;;;;;;;3.47;2.60;;;2.20;99.90;;;;;;5067824;28;20203;-71
2022/03/09 03:28:20;;;;;;;6.00;2.80;;;2.20;99.90;;;;;;5050517;28;20215;-71
2022/03/09 03:30:46;;;;;;;4.20;2.90;;;2.20;99.90;;;;;;5049415;28;20175;-71
2022/03/09 03:33:13;;;;;;;3.20;2.53;;;2.10;99.90;;;;;;5067575;28;20672;-73
2022/03/09 03:35:39;;;;;;;9.90;2.80;;;2.10;99.90;;;;;;5051985;28;20185;-71
2022/03/09 03:38:05;;;;;;;5.97;2.57;;;2.10;99.90;;;;;;5049605;28;20270;-72
2022/03/09 03:40:31;;;;;;;3.80;2.63;;;2.10;99.90;;;;;;5050511;28;20172;-73
2022/03/09 03:42:57;;;;;;;2.87;2.50;;;2.10;99.90;;;;;;5052529;28;20213;-72
2022/03/09 03:45:22;;;;;;;3.17;2.40;;;2.10;99.90;;;;;;5068913;28;20190;-69
2022/03/09 03:47:48;;;;;;;3.00;2.40;;;2.00;99.90;;;;;;5064217;28;20208;-73
2022/03/09 03:50:14;;;;;;;5.37;2.53;;;2.00;99.90;;;;;;5070948;28;20175;-70
2022/03/09 03:52:40;;;;;;;5.00;3.07;;;1.90;99.90;;;;;;5071062;28;20171;-72
2022/03/09 03:55:06;;;;;;;3.83;2.40;;;1.90;99.90;;;;;;5072527;28;20194;-71
2022/03/09 03:57:32;;;;;;;5.43;2.40;;;1.90;99.90;;;;;;5062918;28;20258;-71
2022/03/09 04:00:01;;;;;;;3.93;2.80;;;1.90;99.90;;;;;;5090206;28;20702;-71
2022/03/09 04:02:26;;;;;;;5.80;2.90;;;1.80;99.90;;;;;;5054369;28;20201;-72
2022/03/09 04:04:54;;;;;;;5.47;2.87;;;1.80;99.90;;;;;;5071076;28;20217;-73
2022/03/09 04:07:20;;;;;;;3.70;2.70;;;1.90;99.90;;;;;;5074608;28;20252;-72
2022/03/09 04:09:45;;;;;;;3.47;2.60;;;1.80;99.90;;;;;;5074626;28;20170;-72
2022/03/09 04:12:11;;;;;;;3.13;2.47;;;1.80;99.90;;;;;;5088204;28;20258;-72
2022/03/09 04:14:37;;;;;;;5.00;2.87;;;1.80;99.90;;;;;;5056125;28;20204;-71
2022/03/09 04:17:03;;;;;;;3.27;2.60;;;1.80;99.90;;;;;;5055514;28;20622;-71
2022/03/09 04:19:29;;;;;;;4.67;2.83;;;1.80;99.90;;;;;;5061729;28;20190;-72
2022/03/09 04:21:54;;;;;;;4.40;2.97;;;1.80;99.90;;;;;;5057855;28;20184;-72
2022/03/09 04:24:20;;;;;;;4.03;2.83;;;1.80;99.90;;;;;;5049626;28;20208;-73
2022/03/09 04:26:46;;;;;;;6.80;3.60;;;1.70;99.90;;;;;;5067475;28;20234;-71
2022/03/09 04:29:12;;;;;;;4.17;2.43;;;1.80;99.90;;;;;;5073686;28;20202;-71
2022/03/09 04:31:37;;;;;;;6.07;3.27;;;1.70;99.90;;;;;;5074150;28;20175;-72
2022/03/09 04:34:03;;;;;;;6.10;3.17;;;1.80;99.90;;;;;;5074107;28;20194;-71
2022/03/09 04:36:29;;;;;;;6.03;3.20;;;1.70;99.90;;;;;;5073644;28;20193;-71
2022/03/09 04:38:55;;;;;;;11.07;3.23;;;1.70;99.90;;;;;;5067136;28;20211;-70
2022/03/09 04:41:21;;;;;;;7.40;2.73;;;1.70;99.90;;;;;;5066199;28;20170;-71
2022/03/09 04:43:47;;;;;;;7.30;2.90;;;1.70;99.90;;;;;;5091661;28;20174;-71
2022/03/09 04:46:14;;;;;;;3.67;2.80;;;1.60;99.90;;;;;;5073962;28;20174;-72
2022/03/09 04:48:40;;;;;;;4.10;2.57;;;1.60;99.90;;;;;;5073512;28;20198;-71
2022/03/09 04:51:06;;;;;;;4.43;2.90;;;1.70;99.90;;;;;;5070525;28;20554;-71
2022/03/09 04:53:32;;;;;;;5.23;2.67;;;1.70;99.90;;;;;;5073753;28;20227;-72
2022/03/09 04:55:58;;;;;;;4.33;2.60;;;1.70;99.90;;;;;;5073763;28;20175;-71
2022/03/09 04:58:24;;;;;;;4.70;2.80;;;1.60;99.90;;;;;;5071111;28;20207;-71
2022/03/09 05:00:50;;;;;;;4.07;3.03;;;1.60;99.90;;;;;;5074045;28;20190;-72
2022/03/09 05:03:16;;;;;;;3.73;2.60;;;1.60;99.90;;;;;;5070299;28;20203;-71
2022/03/09 05:05:42;;;;;;;4.90;3.13;;;1.50;99.90;;;;;;5058918;28;20230;-71
2022/03/09 05:08:09;;;;;;;4.43;3.10;;;1.50;99.90;;;;;;5054916;28;20199;-73
2022/03/09 05:10:35;;;;;;;4.73;2.90;;;1.50;99.90;;;;;;5053449;28;20178;-72
2022/03/09 05:13:01;;;;;;;4.93;3.07;;;1.50;99.90;;;;;;5053640;28;20245;-72
2022/03/09 05:15:27;;;;;;;4.57;3.00;;;1.50;99.90;;;;;;5053396;28;20539;-73
2022/03/09 05:17:52;;;;;;;4.03;3.00;;;1.50;99.90;;;;;;5053841;28;20195;-73
2022/03/09 05:20:20;;;;;;;5.43;3.30;;;1.50;99.90;;;;;;5072140;28;20190;-73
2022/03/09 05:22:46;;;;;;;4.77;3.13;;;1.50;99.90;;;;;;5053747;28;20186;-72
2022/03/09 05:25:12;;;;;;;5.33;3.47;;;1.50;99.90;;;;;;5050195;28;20356;-74
2022/03/09 05:27:39;;;;;;;3.97;3.33;;;1.50;99.90;;;;;;5056751;28;20187;-72
2022/03/09 05:30:05;;;;;;;4.67;3.30;;;1.50;99.90;;;;;;5090419;28;20171;-71
2022/03/09 05:32:31;;;;;;;4.03;3.10;;;1.50;99.90;;;;;;5073163;28;20261;-70
2022/03/09 05:34:56;;;;;;;5.67;3.17;;;1.40;99.90;;;;;;5068627;28;20274;-71
2022/03/09 05:37:22;;;;;;;5.67;3.03;;;1.50;99.90;;;;;;5063748;28;20212;-72
2022/03/09 05:39:48;;;;;;;7.67;3.60;;;1.40;99.90;;;;;;5062574;28;20186;-71
2022/03/09 05:42:14;;;;;;;4.23;2.97;;;1.40;99.90;;;;;;5065406;28;20178;-73
2022/03/09 05:44:40;;;;;;;4.63;3.00;;;1.50;99.90;;;;;;5071701;28;20216;-71
2022/03/09 05:47:06;;;;;;;5.47;3.33;;;1.40;99.90;;;;;;5071272;28;20222;-71
2022/03/09 05:49:32;;;;;;;7.70;3.23;;;1.40;99.90;;;;;;5053549;28;20634;-73
2022/03/09 05:51:57;;;;;;;7.00;3.47;;;1.40;99.90;;;;;;5055282;28;20179;-71
2022/03/09 05:54:23;;;;;;;7.17;4.63;;;1.30;99.90;;;;;;5056149;28;20175;-71
2022/03/09 05:56:49;;;;;;;5.93;4.17;;;1.30;99.90;;;;;;5056719;28;20212;-73
2022/03/09 05:59:15;;;;;;;8.27;3.90;;;1.30;99.90;;;;;;5056361;28;20181;-72
2022/03/09 06:01:40;;;;;;;5.63;4.17;;;1.20;99.90;;;;;;5056593;28;20235;-72
2022/03/09 06:04:06;;;;;;;9.80;4.17;;;1.20;99.90;;;;;;5056345;28;20207;-71
2022/03/09 06:06:32;;;;;;;11.03;4.57;;;1.20;99.90;;;;;;5056578;28;20183;-70
2022/03/09 06:08:58;;;;;;;9.43;4.13;;;1.10;99.90;;;;;;5056475;28;20634;-72
2022/03/09 06:11:24;;;;;;;5.23;3.77;;;1.10;99.90;;;;;;5056779;28;20225;-72
2022/03/09 06:13:50;;;;;;;4.97;3.40;;;1.10;99.90;;;;;;5056393;28;20179;-71
2022/03/09 06:16:16;;;;;;;5.63;3.40;;;1.10;99.90;;;;;;5056192;28;20183;-72
2022/03/09 06:18:42;;;;;;;7.13;3.53;;;1.10;99.90;;;;;;5056622;28;20271;-73
2022/03/09 06:21:08;;;;;;;7.17;3.87;;;1.00;99.90;;;;;;5054429;28;20210;-73
2022/03/09 06:23:33;;;;;;;4.97;3.70;;;1.10;99.90;;;;;;5055876;28;20179;-70
2022/03/09 06:25:59;;;;;;;6.73;3.47;;;1.00;99.90;;;;;;5057623;28;20211;-72
2022/03/09 06:28:25;;;;;;;5.83;3.60;;;1.00;99.90;;;;;;5061693;28;20199;-71
2022/03/09 06:30:51;;;;;;;6.07;3.70;;;1.00;99.90;;;;;;5055892;28;20537;-71
2022/03/09 06:33:17;;;;;;;7.60;3.67;;;1.00;99.90;;;;;;5052540;28;20267;-72
2022/03/09 06:35:43;;;;;;;5.73;3.77;;;1.00;99.90;;;;;;5047041;28;20665;-72
2022/03/09 06:38:10;;;;;;;4.67;3.30;;;1.00;99.90;;;;;;5074379;28;20233;-71
2022/03/09 06:40:36;;;;;;;6.10;3.20;;;1.00;99.90;;;;;;5047482;28;20176;-72
2022/03/09 06:43:01;;;;;;;6.20;3.50;;;1.00;99.90;;;;;;5093603;28;20203;-72
2022/03/09 06:45:27;;;;;;;9.97;3.63;;;1.00;99.90;;;;;;5058460;28;20200;-72
2022/03/09 06:47:54;;;;;;;4.40;3.30;;;1.10;99.90;;;;;;5068443;28;20249;-72
2022/03/09 06:50:19;;;;;;;6.07;3.40;;;1.10;99.90;;;;;;5067575;28;20179;-73
2022/03/09 06:52:45;;;;;;;5.53;3.47;;;1.10;99.90;;;;;;5070003;28;20178;-72
2022/03/09 06:55:12;;;;;;;6.10;3.50;;;1.10;99.90;;;;;;5049554;28;20171;-72
2022/03/09 06:57:38;;;;;;;6.33;3.57;;;1.20;99.90;;;;;;5062615;28;20199;-72
2022/03/09 07:00:14;;;;;;;5.87;3.40;;;1.20;99.90;;;;;;5069488;28;20189;-70
2022/03/09 07:02:40;;;;;;;7.90;3.53;;;1.20;99.90;;;;;;5054455;28;20228;-71
2022/03/09 07:05:06;;;;;;;5.47;3.63;;;1.20;99.90;;;;;;5073157;28;20202;-71
2022/03/09 07:07:32;;;;;;;6.40;3.83;;;1.30;99.90;;;;;;5054068;28;20210;-72
2022/03/09 07:09:58;;;;;;;6.47;3.73;;;1.30;99.90;;;;;;5061019;28;20219;-70
2022/03/09 07:12:24;;;;;;;5.57;3.50;;;1.40;99.90;;;;;;5047954;28;20183;-69
2022/03/09 07:14:49;;;;;;;5.20;3.67;;;1.40;99.90;;;;;;5057902;28;20179;-69
2022/03/09 07:17:15;;;;;;;6.07;3.87;;;1.40;99.90;;;;;;5054756;28;20225;-70
2022/03/09 07:19:41;;;;;;;7.33;3.70;;;1.40;99.90;;;;;;5055121;28;20175;-70
2022/03/09 07:22:07;;;;;;;10.07;3.50;;;1.40;99.90;;;;;;5052021;28;20182;-72
2022/03/09 07:24:33;;;;;;;5.70;3.93;;;1.50;99.90;;;;;;5062054;28;20194;-70
2022/03/09 07:26:59;;;;;;;5.53;3.97;;;1.50;99.90;;;;;;5062466;28;20201;-69
2022/03/09 07:29:24;;;;;;;5.57;3.97;;;1.60;99.90;;;;;;5061013;28;20178;-70
2022/03/09 07:31:51;;;;;;;5.63;3.37;;;1.60;99.90;;;;;;5054297;28;20178;-69
2022/03/09 07:34:16;;;;;;;8.23;5.20;;;1.70;99.90;;;;;;5054143;28;20643;-69
2022/03/09 07:36:42;;;;;;;9.27;4.10;;;1.80;99.90;;;;;;5069298;28;20179;-69
2022/03/09 07:39:09;;;;;;;7.07;4.03;;;1.80;99.90;;;;;;5069131;28;20203;-69
2022/03/09 07:41:35;;;;;;;4.87;3.30;;;1.90;99.90;;;;;;5073171;28;20206;-69
2022/03/09 07:44:01;;;;;;;5.27;3.90;;;2.00;99.90;;;;;;5079616;28;20263;-70
2022/03/09 07:46:26;;;;;;;7.93;4.17;;;2.10;99.90;;;;;;5079868;28;20262;-69
2022/03/09 07:48:52;;;;;;;5.10;3.80;;;2.10;99.90;;;;;;5050329;28;20202;-69
2022/03/09 07:51:17;;;;;;;5.20;3.57;;;2.20;99.90;;;;;;5048100;28;20171;-70
2022/03/09 07:53:43;;;;;;;6.70;4.57;;;2.30;99.90;;;;;;5052651;28;20638;-70
2022/03/09 07:56:10;;;;;;;6.47;3.53;;;2.40;99.90;;;;;;5064797;28;20182;-71
2022/03/09 07:58:36;;;;;;;9.37;4.20;;;2.50;99.90;;;;;;5053690;28;20200;-70
2022/03/09 08:01:02;;;;;;;5.03;3.60;;;2.60;99.90;;;;;;5049589;28;20286;-71
2022/03/09 08:03:27;;;;;;;6.07;4.17;;;2.80;99.90;;;;;;5045844;28;20263;-70
2022/03/09 08:05:53;;;;;;;6.07;4.07;;;2.90;99.90;;;;;;5058425;28;20243;-70
2022/03/09 08:08:18;;;;;;;7.23;3.57;;;2.90;99.90;;;;;;5078769;28;20676;-70
2022/03/09 08:10:44;;;;;;;6.93;4.03;;;3.00;99.90;;;;;;5065022;28;20171;-70
2022/03/09 08:13:09;;;;;;;6.07;3.73;;;3.10;99.90;;;;;;5067413;28;20179;-70
2022/03/09 08:15:37;;;;;;;8.73;3.93;;;3.20;99.90;;;;;;5044528;28;20209;-70
2022/03/09 08:18:03;;;;;;;9.10;4.10;;;3.30;99.90;;;;;;5060243;28;20264;-70
2022/03/09 08:20:29;;;;;;;5.87;3.90;;;3.30;99.90;;;;;;5050322;28;20201;-70
2022/03/09 08:22:54;;;;;;;9.10;4.00;;;3.40;99.90;;;;;;5060883;28;20192;-70
2022/03/09 08:25:20;;;;;;;6.97;4.00;;;3.50;99.90;;;;;;5060805;28;20200;-70
2022/03/09 08:27:46;;;;;;;6.47;4.43;;;3.60;99.90;;;;;;5058409;28;20205;-70
2022/03/09 08:30:12;;;;;;;7.33;4.63;;;3.70;99.90;;;;;;5057124;28;20176;-70
2022/03/09 08:32:38;;;;;;;5.97;3.83;;;3.80;99.90;;;;;;5061247;28;20168;-70
2022/03/09 08:35:04;;;;;;;5.80;4.13;;;3.90;99.90;;;;;;5049434;28;20174;-70
2022/03/09 08:37:30;;;;;;;7.97;3.83;;;4.00;99.90;;;;;;5047922;28;20228;-71
2022/03/09 08:39:56;;;;;;;5.93;3.70;;;4.10;99.90;;;;;;5042221;28;20262;-70
2022/03/09 08:42:21;;;;;;;12.10;4.40;;;4.10;99.90;;;;;;5052563;28;20185;-70
2022/03/09 08:44:47;;;;;;;6.10;3.97;;;4.20;99.90;;;;;;5055253;28;20200;-71
2022/03/09 08:47:13;;;;;;;8.23;4.43;;;4.30;99.90;;;;;;5054498;28;20198;-71
2022/03/09 08:49:41;;;;;;;8.37;4.00;;;4.50;99.90;;;;;;5044612;28;20241;-71
2022/03/09 08:52:08;;;;;;;8.77;3.70;;;4.50;99.90;;;;;;5058998;28;20178;-70
2022/03/09 08:54:34;;;;;;;5.87;3.80;;;4.60;99.90;;;;;;5057892;28;20185;-71
2022/03/09 08:57:00;;;;;;;8.77;4.50;;;4.70;99.90;;;;;;5057232;28;20182;-70
2022/03/09 08:59:25;;;;;;;6.03;3.90;;;4.70;99.90;;;;;;5067221;28;20173;-70
2022/03/09 09:01:51;;;;;;;6.07;4.53;;;4.80;99.90;;;;;;5061690;28;20273;-70
2022/03/09 09:04:16;;;;;;;6.67;3.93;;;4.80;99.90;;;;;;5058203;28;20199;-71
2022/03/09 09:06:43;;;;;;;5.90;4.00;;;4.90;99.90;;;;;;5051836;28;20174;-71
2022/03/09 09:09:09;;;;;;;8.33;4.50;;;4.90;99.90;;;;;;5047160;28;20237;-71
2022/03/09 09:11:37;;;;;;;7.87;4.50;;;5.00;99.90;;;;;;5048621;28;20178;-72
2022/03/09 09:14:03;;;;;;;6.43;4.47;;;5.10;99.90;;;;;;5045762;28;20247;-70
2022/03/09 09:16:29;;;;;;;7.80;4.43;;;5.20;99.90;;;;;;5044144;28;20237;-71
2022/03/09 09:18:55;;;;;;;8.40;4.40;;;5.30;99.90;;;;;;5052143;28;20202;-71
2022/03/09 09:21:20;;;;;;;7.50;4.50;;;5.40;99.90;;;;;;5048272;28;20171;-71
2022/03/09 09:23:46;;;;;;;6.37;4.20;;;5.40;99.90;;;;;;5063235;28;20203;-71
2022/03/09 09:26:15;;;;;;;7.67;4.30;;;5.50;99.90;;;;;;5052095;28;20205;-70
2022/03/09 09:28:41;;;;;;;5.47;3.97;;;5.60;99.90;;;;;;5052219;28;20252;-70
2022/03/09 09:31:06;;;;;;;5.07;4.00;;;5.70;99.90;;;;;;5054236;28;20171;-71
2022/03/09 09:33:32;;;;;;;4.90;3.67;;;5.80;99.90;;;;;;5049696;28;20180;-70
2022/03/09 09:35:58;;;;;;;6.70;4.33;;;5.90;99.90;;;;;;5063874;28;20201;-70
2022/03/09 09:38:23;;;;;;;4.97;4.03;;;6.00;99.90;;;;;;5057386;28;20285;-70
2022/03/09 09:40:53;;;;;;;5.40;3.87;;;6.00;99.90;;;;;;5062198;28;20178;-71
2022/03/09 09:43:19;;;;;;;5.47;4.03;;;6.10;99.90;;;;;;5077053;28;20559;-70
2022/03/09 09:45:45;;;;;;;8.37;4.30;;;6.30;99.90;;;;;;5071003;28;20198;-70
2022/03/09 09:48:12;;;;;;;5.87;4.03;;;6.40;99.90;;;;;;5045313;28;20245;-71
2022/03/09 09:50:39;;;;;;;11.20;5.03;;;6.50;99.90;;;;;;5048780;28;20175;-71
2022/03/09 09:53:08;;;;;;;7.90;4.30;;;6.60;99.90;;;;;;5058445;28;20682;-70
2022/03/09 09:55:34;;;;;;;8.60;4.10;;;6.70;99.90;;;;;;5058686;28;20182;-71
2022/03/09 09:58:03;;;;;;;5.47;4.00;;;6.80;99.90;;;;;;5054358;28;20199;-71
2022/03/09 10:00:30;;;;;;;12.23;4.57;;;6.90;99.90;;;;;;5062251;28;20174;-71
2022/03/09 10:02:55;;;;;;;6.33;3.83;;;7.00;99.90;;;;;;5053593;28;20187;-70
2022/03/09 10:05:21;;;;;;;6.13;4.10;;;7.10;99.90;;;;;;5057507;28;20570;-71
2022/03/09 10:08:06;;;;;;;6.07;4.10;;;7.20;99.90;;;;;;5054519;28;20533;-72
2022/03/09 10:10:39;;;;;;;6.67;3.80;;;7.20;99.90;;;;;;5050810;28;20217;-72
2022/03/09 10:13:16;;;;;;;6.97;4.30;;;7.40;99.90;;;;;;5047393;28;20176;-71
2022/03/09 10:15:44;;;;;;;6.73;4.33;;;7.40;99.90;;;;;;5043732;28;20183;-71
2022/03/09 10:18:19;;;;;;;8.03;4.33;;;7.50;99.90;;;;;;5056216;28;20208;-71
2022/03/09 10:20:47;;;;;;;7.87;4.30;;;7.50;99.90;;;;;;5051089;28;20714;-71
2022/03/09 10:23:13;;;;;;;11.43;4.40;;;7.60;99.90;;;;;;5057845;28;20210;-71
2022/03/09 10:25:40;;;;;;;6.97;4.60;;;7.70;99.90;;;;;;5075156;28;20206;-71
2022/03/09 10:28:08;;;;;;;5.37;3.83;;;7.70;99.90;;;;;;5057421;28;20209;-71
2022/03/09 10:30:36;;;;;;;6.97;3.83;;;7.80;99.90;;;;;;5056417;28;20175;-71
2022/03/09 10:33:04;;;;;;;5.17;3.90;;;7.80;99.90;;;;;;5055658;28;20182;-71
2022/03/09 10:35:30;;;;;;;7.83;4.37;;;8.00;99.90;;;;;;5055621;28;20175;-72
2022/03/09 10:38:03;;;;;;;8.80;3.80;;;8.00;99.90;;;;;;5057011;28;20251;-70
2022/03/09 10:40:38;;;;;;;4.97;3.83;;;8.10;99.90;;;;;;5073459;28;20178;-71
2022/03/09 10:43:14;;;;;;;9.27;4.17;;;8.10;99.90;;;;;;5057214;28;20274;-70
2022/03/09 10:46:00;;;;;;;5.50;4.10;;;8.20;99.90;;;;;;5074626;28;20208;-70
2022/03/09 10:48:27;;;;;;;6.27;4.60;;;8.30;99.90;;;;;;5054017;28;20218;-70
2022/03/09 10:50:54;;;;;;;5.87;4.20;;;8.30;99.90;;;;;;5062102;28;20181;-70
2022/03/09 10:53:20;;;;;;;6.60;3.83;;;8.30;99.90;;;;;;5059149;28;20181;-70
2022/03/09 10:55:46;;;;;;;5.40;3.63;;;8.40;99.90;;;;;;5057191;28;20183;-70
2022/03/09 10:58:13;;;;;;;5.27;4.03;;;8.50;99.90;;;;;;5055186;28;20336;-70
2022/03/09 11:00:42;;;;;;;4.70;3.60;;;8.50;99.90;;;;;;5055171;28;20183;-70
2022/03/09 11:03:11;;;;;;;7.47;3.67;;;8.60;99.90;;;;;;5067695;28;20198;-70
2022/03/09 11:05:53;;;;;;;9.00;4.03;;;8.60;99.90;;;;;;5054484;28;20206;-70
2022/03/09 11:08:21;;;;;;;5.87;3.97;;;8.70;99.90;;;;;;5051131;28;20225;-70
2022/03/09 11:10:48;;;;;;;5.87;3.77;;;8.70;99.90;;;;;;5054766;28;20298;-69
2022/03/09 11:13:14;;;;;;;5.27;3.83;;;8.80;99.90;;;;;;5053116;28;20261;-68
2022/03/09 11:15:42;;;;;;;5.10;3.67;;;8.80;99.90;;;;;;5063885;28;20180;-70
2022/03/09 11:18:12;;;;;;;8.57;3.70;;;8.80;99.90;;;;;;5049139;28;20210;-70
2022/03/09 11:20:38;;;;;;;5.03;3.63;;;8.80;99.90;;;;;;5053197;28;20183;-69
2022/03/09 11:23:04;;;;;;;6.50;3.83;;;8.90;99.90;;;;;;5071621;28;20250;-70
2022/03/09 11:25:30;;;;;;;6.03;4.40;;;8.90;99.90;;;;;;5055288;28;20230;-70
2022/03/09 11:27:56;;;;;;;8.57;4.10;;;8.90;99.90;;;;;;5052427;28;20240;-70
2022/03/09 11:30:27;;;;;;;5.90;3.97;;;8.90;99.90;;;;;;5068175;28;20202;-70
2022/03/09 11:32:55;;;;;;;5.73;4.30;;;8.90;99.90;;;;;;5075456;28;20181;-70
2022/03/09 11:35:35;;;;;;;5.53;3.90;;;9.00;99.90;;;;;;5048193;28;20178;-69
2022/03/09 11:38:02;;;;;;;5.80;4.00;;;9.10;99.90;;;;;;5050370;28;20293;-69
2022/03/09 11:40:27;;;;;;;6.67;4.07;;;9.10;99.90;;;;;;5057380;28;20181;-69
2022/03/09 11:42:53;;;;;;;5.90;4.07;;;9.20;99.90;;;;;;5068863;28;20183;-70
2022/03/09 11:45:29;;;;;;;5.87;4.10;;;9.20;99.90;;;;;;5050136;28;20199;-71
2022/03/09 11:48:03;;;;;;;7.40;5.03;;;9.20;99.90;;;;;;5069166;28;20399;-69
2022/03/09 11:50:32;;;;;;;5.07;4.10;;;9.30;99.90;;;;;;5054439;28;20185;-70
2022/03/09 11:53:08;;;;;;;5.70;4.13;;;9.30;99.90;;;;;;5057263;28;20190;-70
2022/03/09 11:55:35;;;;;;;4.90;3.60;;;9.40;99.90;;;;;;5066356;28;20273;-69
2022/03/09 11:58:07;;;;;;;5.03;4.00;;;9.40;99.90;;;;;;5051780;28;20500;-69
2022/03/09 12:00:38;;;;;;;6.03;3.90;;;9.50;99.90;;;;;;5063933;28;20171;-69
2022/03/09 12:03:04;;;;;;;5.47;4.00;;;9.60;99.90;;;;;;5060773;28;20262;-68
2022/03/09 12:05:35;;;;;;;5.33;4.13;;;9.70;99.90;;;;;;5072552;28;20251;-70
2022/03/09 12:08:05;;;;;;;8.63;3.60;;;9.70;99.90;;;;;;5044966;28;20190;-70
2022/03/09 12:10:49;;;;;;;4.13;3.57;;;9.80;99.90;;;;;;5062893;28;20174;-69
2022/03/09 12:13:50;;;;;;;5.87;4.00;;;9.80;99.90;;;;;;5075670;28;20166;-70
2022/03/09 12:16:22;;;;;;;7.37;4.33;;;9.90;99.90;;;;;;5076077;28;20184;-69
2022/03/09 12:18:49;;;;;;;6.40;4.40;;;9.90;99.90;;;;;;5068967;28;20199;-70
2022/03/09 12:21:40;;;;;;;9.07;4.93;;;10.00;99.90;;;;;;5072792;28;20467;-69
2022/03/09 12:24:05;;;;;;;8.17;4.30;;;9.90;99.90;;;;;;5044768;28;20675;-69
2022/03/09 12:26:47;;;;;;;5.13;3.90;;;9.90;99.90;;;;;;5078385;28;20184;-70
2022/03/09 12:29:24;;;;;;;6.93;4.00;;;10.00;99.90;;;;;;5073025;28;20198;-69
2022/03/09 12:32:02;;;;;;;4.73;3.57;;;10.10;99.90;;;;;;5063984;28;20200;-70
2022/03/09 12:34:30;;;;;;;5.13;4.10;;;10.10;99.90;;;;;;5070101;28;20186;-69
2022/03/09 12:36:56;;;;;;;4.77;3.77;;;10.10;99.90;;;;;;5050240;28;20186;-70
2022/03/09 12:39:22;;;;;;;6.17;4.20;;;10.20;99.90;;;;;;5053191;28;20258;-70
2022/03/09 12:41:56;;;;;;;6.90;4.37;;;10.30;99.90;;;;;;5063731;28;20269;-70
2022/03/09 12:44:23;;;;;;;4.67;3.83;;;10.30;99.90;;;;;;5042070;28;20169;-68
2022/03/09 12:46:52;;;;;;;5.10;4.13;;;10.40;99.90;;;;;;5041214;28;20179;-70
2022/03/09 12:49:52;;;;;;;5.13;3.90;;;10.40;99.90;;;;;;5052287;28;20245;-70
2022/03/09 12:52:19;;;;;;;6.63;4.23;;;10.50;99.90;;;;;;5062211;28;20222;-70
2022/03/09 12:54:50;;;;;;;5.43;3.93;;;10.50;99.90;;;;;;5062573;28;20194;-70